Time;durP1;ratioP1;P1;durP2;ratioP2;P2;SDS_P1;SDS_P2;PMS_P1;PMS_P2;Temp;Humidity;BMP_temperature;BMP_pressure;BME280_temperature;BME280_humidity;BME280_pressure;Samples;Min_cycle;Max_cycle;Signal;HPM_P1;HPM_P2
2023/10/14 00:15:22;;;;;;;6.95;4.40;;;;;;;21.74;73.21;100628.16;10251180;28;96541;-72
2023/10/14 00:20:26;;;;;;;5.88;4.35;;;;;;;21.67;72.87;100618.03;10217291;28;97684;-72
2023/10/14 00:25:32;;;;;;;7.40;4.10;;;;;;;21.29;73.87;100616.53;10207095;28;98919;-72
2023/10/14 00:30:38;;;;;;;6.53;4.50;;;;;;;21.14;73.93;100615.03;10212295;28;97249;-73
2023/10/14 00:35:41;;;;;;;6.72;4.95;;;;;;;21.13;73.39;100616.00;10207513;28;98445;-72
2023/10/14 00:40:47;;;;;;;8.83;5.40;;;;;;;21.05;73.70;100634.47;10218056;28;96776;-72
2023/10/14 00:45:52;;;;;;;9.15;5.10;;;;;;;21.05;73.08;100622.94;10227684;28;96989;-72
2023/10/14 00:50:58;;;;;;;6.38;4.55;;;;;;;20.95;73.54;100613.88;10210432;28;99710;-72
2023/10/14 00:56:02;;;;;;;6.70;4.53;;;;;;;20.84;73.81;100608.50;10219996;28;99748;-72
2023/10/14 01:01:07;;;;;;;7.35;4.80;;;;;;;20.78;73.67;100614.31;10213068;28;96833;-72
2023/10/14 01:06:22;;;;;;;6.75;4.32;;;;;;;20.80;73.06;100615.91;10232098;28;97455;-72
2023/10/14 01:11:26;;;;;;;7.45;4.40;;;;;;;20.76;73.13;100619.78;10213821;28;96681;-72
2023/10/14 01:16:37;;;;;;;5.55;4.30;;;;;;;20.63;74.49;100624.34;10180233;28;98655;-72
2023/10/14 01:21:41;;;;;;;6.55;4.32;;;;;;;20.65;73.40;100624.25;10176928;28;96945;-72
2023/10/14 01:26:53;;;;;;;6.63;4.90;;;;;;;20.63;73.32;100628.84;10172260;28;97587;-72
2023/10/14 01:32:10;;;;;;;8.48;4.68;;;;;;;20.56;73.82;100615.09;10196439;28;96935;-72
2023/10/14 01:37:18;;;;;;;6.75;4.68;;;;;;;20.62;72.95;100617.28;10180097;28;96915;-72
2023/10/14 01:42:23;;;;;;;10.32;4.55;;;;;;;20.59;72.96;100616.66;10176434;28;97472;-72
2023/10/14 01:47:29;;;;;;;7.05;4.55;;;;;;;20.60;73.04;100627.25;10175521;28;97892;-72
2023/10/14 01:52:33;;;;;;;6.78;3.88;;;;;;;20.70;72.41;100614.91;10178835;28;96818;-72
2023/10/14 01:57:38;;;;;;;7.65;4.60;;;;;;;20.77;71.99;100605.44;10177745;28;97008;-73
2023/10/14 02:02:59;;;;;;;6.07;4.57;;;;;;;20.58;72.77;100609.63;10179450;28;98589;-73
2023/10/14 02:08:04;;;;;;;7.25;4.30;;;;;;;20.69;72.22;100607.00;10166728;28;96737;-73
2023/10/14 02:13:09;;;;;;;6.17;4.77;;;;;;;20.61;72.37;100609.38;10177015;28;97134;-73
2023/10/14 02:18:12;;;;;;;6.63;4.30;;;;;;;20.56;72.46;100609.75;10178143;28;98391;-73
2023/10/14 02:23:16;;;;;;;6.07;4.15;;;;;;;20.53;72.36;100609.13;10175690;28;96772;-73
2023/10/14 02:28:20;;;;;;;7.97;4.50;;;;;;;20.43;72.58;100605.44;10182701;28;96829;-73
2023/10/14 02:33:24;;;;;;;7.22;4.38;;;;;;;20.42;72.54;100612.59;10188195;28;98667;-73
2023/10/14 02:38:30;;;;;;;6.00;4.30;;;;;;;20.46;72.90;100615.88;10174218;28;98870;-73
2023/10/14 02:43:36;;;;;;;8.60;4.65;;;;;;;20.57;72.57;100624.81;10177518;28;96956;-73
2023/10/14 02:48:54;;;;;;;6.10;4.15;;;;;;;20.55;72.75;100618.72;10178922;28;96903;-73
2023/10/14 02:54:03;;;;;;;6.63;4.05;;;;;;;20.55;72.96;100624.06;10174984;28;96859;-73
2023/10/14 02:59:09;;;;;;;6.22;4.47;;;;;;;20.54;73.12;100621.50;10165467;28;96992;-73
2023/10/14 03:04:18;;;;;;;6.00;4.45;;;;;;;20.52;73.42;100620.75;10180129;28;96919;-73
2023/10/14 03:09:32;;;;;;;5.78;4.35;;;;;;;20.55;73.64;100617.88;10178512;28;97184;-74
2023/10/14 03:14:40;;;;;;;5.97;4.70;;;;;;;20.63;73.41;100612.81;10196483;28;98132;-74
2023/10/14 03:19:44;;;;;;;6.25;4.15;;;;;;;20.59;73.23;100587.25;10178143;28;96838;-73
2023/10/14 03:24:47;;;;;;;6.00;4.60;;;;;;;20.46;73.78;100581.13;10176804;28;98264;-74
2023/10/14 03:29:58;;;;;;;7.43;4.35;;;;;;;20.36;73.91;100567.59;10173879;28;97355;-74
2023/10/14 03:35:11;;;;;;;8.25;4.43;;;;;;;20.22;74.26;100560.56;10173969;28;97556;-73
2023/10/14 03:45:45;;;;;;;8.13;4.45;;;;;;;20.04;74.26;100563.75;10166533;28;96952;-73
2023/10/14 03:50:48;;;;;;;5.32;4.00;;;;;;;19.99;74.53;100565.91;10170381;28;98996;-73
2023/10/14 03:55:52;;;;;;;6.45;4.40;;;;;;;19.90;74.96;100570.13;10172338;28;96845;-74
2023/10/14 04:00:57;;;;;;;6.15;4.20;;;;;;;19.87;74.48;100565.00;10174265;28;97779;-73
2023/10/14 04:06:01;;;;;;;6.40;4.45;;;;;;;19.80;74.62;100576.22;10175996;28;96806;-73
2023/10/14 04:11:11;;;;;;;7.10;4.80;;;;;;;19.83;74.62;100578.66;10174351;28;97508;-73
2023/10/14 04:16:18;;;;;;;6.22;4.35;;;;;;;19.86;74.35;100586.47;10173936;28;96914;-73
2023/10/14 04:21:26;;;;;;;8.52;3.92;;;;;;;19.87;74.22;100575.69;10174680;28;98850;-73
2023/10/14 04:26:34;;;;;;;7.75;4.80;;;;;;;19.84;73.97;100578.56;10175136;28;98833;-73
2023/10/14 04:31:41;;;;;;;7.30;4.57;;;;;;;19.67;74.84;100586.94;10176044;28;96744;-73
2023/10/14 04:36:54;;;;;;;6.53;4.35;;;;;;;19.70;74.91;100578.69;10160702;28;97115;-73
2023/10/14 04:42:03;;;;;;;8.38;4.45;;;;;;;19.71;74.36;100564.41;10161479;28;98003;-73
2023/10/14 04:47:09;;;;;;;6.30;4.03;;;;;;;19.75;74.29;100573.88;10155704;28;98974;-73
2023/10/14 04:52:21;;;;;;;6.72;4.57;;;;;;;19.56;74.83;100578.00;10164700;28;97196;-73
2023/10/14 04:57:25;;;;;;;6.60;4.78;;;;;;;19.41;76.28;100582.59;10180152;28;97189;-73
2023/10/14 05:02:31;;;;;;;6.47;4.43;;;;;;;19.32;76.78;100590.38;10198879;28;97111;-73
2023/10/14 05:07:35;;;;;;;7.20;5.15;;;;;;;19.34;76.44;100594.63;10175596;28;98890;-73
2023/10/14 05:12:42;;;;;;;;;;;;;;;19.23;78.10;100589.22;10191797;28;96988;-73
2023/10/14 05:17:49;;;;;;;6.30;4.20;;;;;;;19.27;76.42;100604.88;10177580;28;96808;-73
2023/10/14 05:22:52;;;;;;;7.10;4.57;;;;;;;19.29;75.79;100594.97;10178291;28;96979;-73
2023/10/14 05:27:56;;;;;;;6.32;4.45;;;;;;;19.37;75.63;100606.91;10174524;28;96636;-73
2023/10/14 05:33:06;;;;;;;7.97;4.57;;;;;;;19.47;75.17;100621.34;10185698;28;97047;-73
2023/10/14 05:38:14;;;;;;;6.95;4.80;;;;;;;19.49;74.72;100616.75;10166276;28;98838;-73
2023/10/14 05:43:21;;;;;;;5.40;4.03;;;;;;;19.44;74.97;100625.06;10165839;28;96808;-73
2023/10/14 05:48:30;;;;;;;8.27;4.47;;;;;;;19.34;75.19;100626.66;10189091;28;96746;-73
2023/10/14 05:53:34;;;;;;;6.30;4.28;;;;;;;19.24;75.29;100626.44;10177221;28;97610;-73
2023/10/14 05:58:38;;;;;;;8.27;4.85;;;;;;;19.12;76.90;100639.78;10177497;28;97721;-73
2023/10/14 06:03:43;;;;;;;5.63;4.30;;;;;;;19.07;76.27;100631.22;10180247;28;98283;-73
2023/10/14 06:08:47;;;;;;;7.75;4.82;;;;;;;18.94;76.64;100641.88;10182090;28;96828;-73
2023/10/14 06:13:52;;;;;;;9.45;5.35;;;;;;;18.78;77.79;100637.69;10178898;28;96838;-73
2023/10/14 06:18:57;;;;;;;9.35;6.60;;;;;;;18.73;77.82;100647.81;10179928;28;97133;-73
2023/10/14 06:24:04;;;;;;;9.35;6.10;;;;;;;18.68;78.28;100655.28;10181136;28;96877;-73
2023/10/14 06:29:09;;;;;;;17.52;10.77;;;;;;;18.71;77.92;100668.38;10181938;28;96794;-72
2023/10/14 06:34:14;;;;;;;25.67;14.07;;;;;;;18.76;77.46;100687.59;10167684;28;98807;-72
2023/10/14 06:39:26;;;;;;;26.63;13.65;;;;;;;18.86;76.71;100702.88;10190397;28;98682;-72
2023/10/14 06:44:29;;;;;;;19.02;11.60;;;;;;;18.81;77.00;100709.47;10172125;28;96858;-74
2023/10/14 06:49:36;;;;;;;14.10;8.40;;;;;;;18.85;76.51;100717.16;10180068;28;97356;-73
2023/10/14 06:54:41;;;;;;;14.45;8.07;;;;;;;18.79;76.82;100730.91;10177423;28;96849;-73
2023/10/14 06:59:45;;;;;;;11.38;6.78;;;;;;;18.65;77.88;100730.09;10181730;28;96832;-74
2023/10/14 07:04:50;;;;;;;14.83;8.97;;;;;;;18.61;77.79;100744.59;10176680;28;98490;-73
2023/10/14 07:09:54;;;;;;;12.90;7.30;;;;;;;18.52;78.56;100739.84;10173983;28;97098;-74
2023/10/14 07:14:58;;;;;;;8.53;5.50;;;;;;;18.45;79.65;100766.00;10176250;28;96833;-73
2023/10/14 07:20:02;;;;;;;10.02;6.15;;;;;;;18.44;79.08;100763.41;10199554;28;96915;-73
2023/10/14 07:25:06;;;;;;;;;;;;;;;18.46;79.62;100777.50;10181038;28;97874;-74
2023/10/14 07:30:15;;;;;;;10.60;7.00;;;;;;;18.48;79.89;100791.63;10176599;28;98550;-74
2023/10/14 07:35:20;;;;;;;11.35;6.60;;;;;;;19.08;77.99;100788.53;10183746;28;97319;-74
2023/10/14 07:40:24;;;;;;;11.52;5.70;;;;;;;20.57;74.75;100795.13;10171664;28;96965;-75
2023/10/14 07:45:29;;;;;;;9.07;5.18;;;;;;;21.81;71.82;100802.66;10161227;28;99246;-76
2023/10/14 07:50:34;;;;;;;11.63;7.85;;;;;;;21.88;71.67;100807.44;10164067;28;97282;-76
2023/10/14 07:55:39;;;;;;;9.90;6.32;;;;;;;20.91;72.97;100816.59;10166066;28;96951;-75
2023/10/14 08:00:49;;;;;;;9.82;6.82;;;;;;;20.30;74.04;100809.47;10162185;28;97021;-75
2023/10/14 08:05:59;;;;;;;11.27;6.65;;;;;;;20.19;74.50;100812.00;10159541;28;98922;-75
2023/10/14 08:11:04;;;;;;;6.03;4.18;;;;;;;20.27;73.85;100817.66;10161483;28;97323;-75
2023/10/14 08:16:08;;;;;;;9.45;5.03;;;;;;;20.37;73.31;100815.25;10159397;28;98652;-75
2023/10/14 08:21:13;;;;;;;7.30;4.63;;;;;;;20.36;73.22;100824.22;10179360;28;97553;-75
2023/10/14 08:26:18;;;;;;;5.70;4.38;;;;;;;20.36;73.27;100832.22;10177571;28;96879;-75
2023/10/14 08:31:22;;;;;;;9.35;6.18;;;;;;;20.36;73.34;100830.41;10180724;28;97459;-75
2023/10/14 08:36:27;;;;;;;7.20;4.87;;;;;;;20.48;72.98;100831.34;10183356;28;98322;-76
2023/10/14 08:41:34;;;;;;;6.38;4.50;;;;;;;20.57;72.50;100828.03;10178571;28;96951;-76
2023/10/14 08:46:39;;;;;;;9.52;4.95;;;;;;;20.73;72.23;100828.66;10181502;28;97715;-73
2023/10/14 08:51:45;;;;;;;9.30;5.63;;;;;;;20.92;71.71;100833.50;10175860;28;96907;-74
2023/10/14 08:56:57;;;;;;;8.43;5.55;;;;;;;20.95;71.40;100841.31;10183720;28;98801;-73
2023/10/14 09:02:01;;;;;;;12.60;5.63;;;;;;;20.98;71.49;100843.78;10190644;28;97196;-74
2023/10/14 09:07:14;;;;;;;7.77;5.20;;;;;;;21.21;71.10;100829.56;10171244;28;97087;-74
2023/10/14 09:12:17;;;;;;;8.80;5.03;;;;;;;21.64;70.33;100837.94;10178680;28;98434;-74
2023/10/14 09:17:21;;;;;;;7.23;4.93;;;;;;;21.84;69.75;100829.22;10179401;28;97780;-75
2023/10/14 09:22:28;;;;;;;8.15;5.03;;;;;;;21.93;69.00;100837.41;10172031;28;97406;-74
2023/10/14 09:27:31;;;;;;;9.13;4.72;;;;;;;22.09;69.04;100840.63;10168509;28;97153;-75
2023/10/14 09:32:35;;;;;;;9.20;5.43;;;;;;;22.59;68.86;100848.22;10175824;28;98859;-74
2023/10/14 09:37:40;;;;;;;7.70;4.60;;;;;;;23.12;66.05;100838.56;10184917;28;97230;-74
2023/10/14 09:42:45;;;;;;;8.05;4.35;;;;;;;24.81;62.13;100837.34;10183390;28;97773;-74
2023/10/14 09:47:51;;;;;;;7.10;4.60;;;;;;;26.39;56.62;100832.44;10187482;28;96826;-75
2023/10/14 09:52:59;;;;;;;6.38;4.18;;;;;;;27.04;54.57;100848.53;10177580;28;97479;-75
2023/10/14 09:58:04;;;;;;;6.00;3.95;;;;;;;27.96;52.01;100839.97;10181112;28;96835;-75
2023/10/14 10:03:10;;;;;;;5.95;3.67;;;;;;;29.35;49.17;100835.97;10177639;28;97151;-74
2023/10/14 10:08:28;;;;;;;5.07;3.53;;;;;;;29.16;47.77;100837.13;10188291;28;96918;-74
2023/10/14 10:13:32;;;;;;;5.30;3.92;;;;;;;28.95;48.86;100833.16;10175446;28;97565;-74
2023/10/14 10:18:52;;;;;;;5.82;3.88;;;;;;;28.81;47.64;100828.34;10177261;28;97753;-74
2023/10/14 10:24:17;;;;;;;5.80;3.90;;;;;;;28.61;46.63;100835.00;10186570;28;97492;-74
2023/10/14 10:29:22;;;;;;;5.15;3.22;;;;;;;28.19;47.68;100851.13;10178203;28;97149;-75
2023/10/14 10:34:26;;;;;;;5.45;3.40;;;;;;;26.75;50.22;100851.34;10172271;28;97136;-75
2023/10/14 10:39:31;;;;;;;4.30;3.30;;;;;;;28.43;47.27;100848.63;10185944;28;96841;-74
2023/10/14 10:44:35;;;;;;;5.63;3.30;;;;;;;29.81;45.64;100859.81;10188439;28;96981;-74
2023/10/14 10:49:59;;;;;;;3.67;2.75;;;;;;;30.33;44.17;100848.59;10170503;28;96927;-74
2023/10/14 10:55:05;;;;;;;4.35;3.53;;;;;;;29.38;45.54;100853.78;10181384;28;96797;-75
2023/10/14 11:00:10;;;;;;;6.60;3.45;;;;;;;29.99;44.50;100848.75;10186830;28;98228;-74
2023/10/14 11:05:13;;;;;;;5.35;3.85;;;;;;;30.36;44.12;100842.81;10178182;28;96681;-75
2023/10/14 11:10:18;;;;;;;6.32;3.72;;;;;;;29.57;44.89;100843.50;10185002;28;96828;-75
2023/10/14 11:15:22;;;;;;;6.65;4.00;;;;;;;29.91;44.91;100843.34;10201070;28;96736;-74
2023/10/14 11:20:28;;;;;;;6.97;3.92;;;;;;;28.73;46.82;100840.00;10180585;28;96930;-74
2023/10/14 11:25:40;;;;;;;6.03;4.00;;;;;;;28.04;48.56;100826.53;10186847;28;98354;-74
2023/10/14 11:30:46;;;;;;;5.22;3.60;;;;;;;28.99;46.27;100820.97;10175026;28;96954;-75
2023/10/14 11:35:50;;;;;;;5.00;3.42;;;;;;;30.43;43.57;100817.50;10171374;28;98751;-75
2023/10/14 11:40:54;;;;;;;5.70;3.42;;;;;;;30.58;43.24;100804.88;10167736;28;97567;-75
2023/10/14 11:45:58;;;;;;;4.68;3.10;;;;;;;32.40;41.35;100801.22;10171001;28;97136;-75
2023/10/14 11:51:03;;;;;;;4.95;3.72;;;;;;;33.78;39.06;100799.13;10172187;28;96967;-73
2023/10/14 11:56:08;;;;;;;5.28;3.63;;;;;;;34.73;37.90;100786.59;10159881;28;97646;-73
2023/10/14 12:01:11;;;;;;;5.05;3.20;;;;;;;33.75;38.93;100774.94;10172010;28;97375;-73
2023/10/14 12:06:15;;;;;;;5.93;3.63;;;;;;;33.57;38.34;100768.28;10185778;28;96951;-73
2023/10/14 12:11:19;;;;;;;4.57;3.15;;;;;;;35.02;36.05;100763.56;10172522;28;97613;-73
2023/10/14 12:16:23;;;;;;;5.82;3.90;;;;;;;34.71;35.85;100752.28;10137409;28;96678;-73
2023/10/14 12:21:26;;;;;;;3.70;3.05;;;;;;;36.15;34.00;100739.69;10164531;28;96789;-73
2023/10/14 12:26:33;;;;;;;4.32;3.30;;;;;;;35.40;34.67;100738.19;10167104;28;97407;-74
2023/10/14 12:31:44;;;;;;;4.30;3.15;;;;;;;35.82;33.28;100725.16;10156358;28;98859;-74
2023/10/14 12:36:52;;;;;;;4.82;3.75;;;;;;;36.17;33.27;100713.72;10169451;22;99197;-73
2023/10/14 12:42:03;;;;;;;5.88;4.03;;;;;;;37.00;31.50;100718.28;10166407;28;98991;-73
2023/10/14 12:47:11;;;;;;;3.73;2.97;;;;;;;36.45;32.59;100710.72;10173397;28;96779;-73
2023/10/14 12:52:19;;;;;;;4.45;2.97;;;;;;;36.96;32.17;100708.81;10161697;28;96808;-73
2023/10/14 12:57:24;;;;;;;4.05;2.60;;;;;;;37.49;30.94;100699.16;10170812;28;96891;-74
2023/10/14 13:02:28;;;;;;;3.72;2.20;;;;;;;38.07;30.09;100696.09;10170015;28;96882;-75
2023/10/14 13:07:31;;;;;;;4.78;2.60;;;;;;;37.62;30.39;100689.97;10174187;28;96931;-75
2023/10/14 13:12:37;;;;;;;3.53;2.20;;;;;;;36.70;31.00;100685.09;10177827;28;97738;-75
2023/10/14 13:17:40;;;;;;;3.30;2.38;;;;;;;36.31;31.82;100690.69;10173687;28;98002;-76
2023/10/14 13:22:43;;;;;;;2.90;2.25;;;;;;;36.26;31.42;100693.25;10177945;28;96753;-77
2023/10/14 13:27:51;;;;;;;3.17;2.35;;;;;;;36.27;31.10;100689.47;10168869;28;98694;-77
2023/10/14 13:32:55;;;;;;;3.55;2.25;;;;;;;36.63;31.10;100689.75;10176126;28;98921;-74
2023/10/14 13:37:59;;;;;;;3.15;2.30;;;;;;;35.84;31.65;100677.28;10176939;28;99396;-74
2023/10/14 13:43:04;;;;;;;4.07;2.05;;;;;;;35.64;31.69;100673.75;10173447;28;97669;-74
2023/10/14 13:48:08;;;;;;;2.80;2.00;;;;;;;35.90;31.34;100681.94;10175880;28;96833;-75
2023/10/14 13:53:17;;;;;;;3.00;1.90;;;;;;;35.35;32.06;100680.50;10160180;28;96851;-74
2023/10/14 13:58:23;;;;;;;2.22;1.75;;;;;;;35.13;31.96;100670.75;10173431;28;98883;-75
2023/10/14 14:03:28;;;;;;;2.00;1.70;;;;;;;35.26;32.01;100675.41;10180852;28;96672;-74
2023/10/14 14:08:32;;;;;;;3.08;1.85;;;;;;;35.17;32.19;100683.00;10181568;28;96864;-74
2023/10/14 14:13:42;;;;;;;3.13;2.00;;;;;;;35.14;31.79;100677.09;10174840;28;96852;-74
2023/10/14 14:18:48;;;;;;;2.47;2.00;;;;;;;35.18;31.86;100678.38;10205098;28;96841;-74
2023/10/14 14:23:52;;;;;;;3.10;1.63;;;;;;;34.85;32.02;100683.75;10189495;28;98249;-74
2023/10/14 14:29:01;;;;;;;3.45;2.13;;;;;;;34.76;31.63;100676.78;10174009;28;97819;-74
2023/10/14 14:34:07;;;;;;;2.87;2.10;;;;;;;34.32;32.04;100663.56;10172893;28;97633;-76
2023/10/14 14:39:15;;;;;;;3.05;2.00;;;;;;;34.08;32.51;100657.75;10174776;28;97625;-75
2023/10/14 14:44:20;;;;;;;2.88;2.10;;;;;;;34.50;31.87;100649.38;10176681;28;97591;-75
2023/10/14 14:49:23;;;;;;;2.45;1.90;;;;;;;34.78;31.76;100654.69;10173921;28;98831;-73
2023/10/14 14:54:29;;;;;;;3.45;2.30;;;;;;;34.69;32.24;100651.31;10173237;28;96893;-73
2023/10/14 14:59:34;;;;;;;3.67;2.55;;;;;;;34.93;31.92;100639.81;10172798;28;97866;-73
2023/10/14 15:04:38;;;;;;;3.03;2.25;;;;;;;35.08;31.53;100642.38;10168887;28;98702;-75
2023/10/14 15:09:43;;;;;;;3.42;2.53;;;;;;;34.77;31.99;100631.97;10165226;28;96867;-74
2023/10/14 15:14:51;;;;;;;4.40;2.55;;;;;;;34.78;31.95;100632.81;10184151;28;98028;-75
2023/10/14 15:19:55;;;;;;;4.57;2.60;;;;;;;34.16;32.72;100628.38;10183984;28;98852;-74
2023/10/14 15:24:59;;;;;;;3.58;2.53;;;;;;;33.45;33.56;100626.88;10201125;28;98120;-76
2023/10/14 15:30:11;;;;;;;3.90;2.70;;;;;;;33.48;33.87;100631.97;10171689;28;99035;-75
2023/10/14 15:35:16;;;;;;;3.75;2.78;;;;;;;32.87;34.10;100618.13;10168428;28;96845;-75
2023/10/14 15:40:21;;;;;;;3.63;2.75;;;;;;;32.79;34.50;100621.00;10175739;28;98347;-76
2023/10/14 15:45:27;;;;;;;3.88;2.85;;;;;;;32.68;34.91;100613.31;10185156;28;96875;-76
2023/10/14 15:50:38;;;;;;;3.88;3.00;;;;;;;31.73;36.03;100606.22;10176057;28;97015;-76
2023/10/14 15:55:41;;;;;;;4.70;2.90;;;;;;;30.79;38.14;100601.34;10173909;28;97198;-76
2023/10/14 16:00:49;;;;;;;4.03;3.20;;;;;;;30.31;38.75;100590.78;10203110;28;96943;-76
2023/10/14 16:05:56;;;;;;;3.95;2.70;;;;;;;30.37;38.14;100587.31;10215339;28;96788;-76
2023/10/14 16:11:00;;;;;;;4.00;2.47;;;;;;;30.06;38.05;100576.44;10183451;28;96854;-76
2023/10/14 16:16:05;;;;;;;;;;;;;;;29.91;38.45;100577.38;10204246;28;96870;-76
2023/10/14 16:21:09;;;;;;;5.60;2.65;;;;;;;29.59;38.82;100572.91;10170144;28;96962;-76
2023/10/14 16:26:12;;;;;;;4.60;2.60;;;;;;;29.12;39.54;100575.53;10201294;28;96885;-75
2023/10/14 16:31:17;;;;;;;;;;;;;;;28.80;41.64;100578.25;10174504;28;97016;-75
2023/10/14 16:36:21;;;;;;;5.03;3.05;;;;;;;28.31;41.60;100570.25;10167046;28;97153;-76
2023/10/14 16:41:24;;;;;;;5.38;2.97;;;;;;;28.22;42.16;100571.19;10174820;28;96831;-76
2023/10/14 16:46:28;;;;;;;4.60;2.90;;;;;;;28.08;43.02;100567.28;10174890;28;98282;-75
2023/10/14 16:51:32;;;;;;;4.93;3.05;;;;;;;27.75;43.77;100554.63;10176748;28;96893;-76
2023/10/14 16:56:35;;;;;;;4.50;2.72;;;;;;;27.60;44.30;100562.47;10179116;28;96938;-75
2023/10/14 17:01:42;;;;;;;3.83;2.55;;;;;;;27.11;46.04;100560.50;10180030;28;97087;-75
2023/10/14 17:06:46;;;;;;;4.47;3.25;;;;;;;26.88;47.42;100554.75;10179740;28;97158;-74
2023/10/14 17:11:49;;;;;;;5.43;3.80;;;;;;;26.82;48.26;100557.19;10178037;28;96884;-75
2023/10/14 17:16:54;;;;;;;8.63;3.70;;;;;;;26.69;48.58;100554.06;10173534;28;96807;-74
2023/10/14 17:21:57;;;;;;;5.25;3.58;;;;;;;26.35;49.27;100551.19;10176783;28;96688;-78
2023/10/14 17:27:01;;;;;;;8.77;4.83;;;;;;;26.32;49.22;100561.44;10177776;28;99108;-76
2023/10/14 17:32:05;;;;;;;42.17;23.07;;;;;;;26.16;49.80;100570.19;10179483;28;98600;-76
2023/10/14 17:37:10;;;;;;;32.67;18.60;;;;;;;25.81;51.04;100572.84;10172263;28;97565;-77
2023/10/14 17:42:13;;;;;;;34.47;18.63;;;;;;;25.49;52.15;100569.69;10170621;28;97107;-75
2023/10/14 17:47:18;;;;;;;45.90;22.43;;;;;;;25.54;51.92;100575.47;10183227;28;97090;-75
2023/10/14 17:52:21;;;;;;;65.10;34.22;;;;;;;25.27;53.06;100586.22;10206575;28;96836;-75
2023/10/14 17:57:24;;;;;;;70.27;35.77;;;;;;;25.03;53.99;100589.41;10178005;28;96967;-75
2023/10/14 18:02:29;;;;;;;53.97;28.17;;;;;;;24.89;54.48;100591.63;10189370;28;96771;-75
2023/10/14 18:07:32;;;;;;;47.47;23.67;;;;;;;24.42;56.08;100591.50;10175224;28;97061;-75
2023/10/14 18:12:38;;;;;;;25.05;13.85;;;;;;;24.52;55.96;100596.88;10178872;28;96841;-75
2023/10/14 18:17:44;;;;;;;27.27;14.77;;;;;;;24.46;56.04;100595.59;10175742;28;97283;-75
2023/10/14 18:22:50;;;;;;;21.13;12.10;;;;;;;24.29;56.95;100603.53;10176262;28;97221;-75
2023/10/14 18:27:53;;;;;;;19.88;11.65;;;;;;;24.10;57.49;100604.28;10175791;28;96960;-75
2023/10/14 18:33:01;;;;;;;14.77;8.63;;;;;;;23.87;58.35;100610.03;10174138;28;97220;-75
2023/10/14 18:38:09;;;;;;;11.65;8.10;;;;;;;23.59;59.23;100617.84;10163359;28;96881;-75
2023/10/14 18:43:14;;;;;;;12.70;6.97;;;;;;;23.68;58.98;100627.75;10173813;28;97916;-74
2023/10/14 18:48:19;;;;;;;11.73;7.40;;;;;;;23.72;58.89;100633.72;10175247;28;97135;-75
2023/10/14 18:53:22;;;;;;;9.75;5.88;;;;;;;23.75;58.68;100630.78;10169832;28;96894;-74
2023/10/14 18:58:27;;;;;;;10.50;7.00;;;;;;;23.70;58.59;100638.41;10171900;28;98094;-76
2023/10/14 19:03:33;;;;;;;12.02;7.63;;;;;;;23.79;58.51;100636.75;10175277;28;98882;-74
2023/10/14 19:08:37;;;;;;;13.07;7.18;;;;;;;23.70;58.80;100635.72;10166935;28;97063;-74
2023/10/14 19:13:40;;;;;;;18.70;10.75;;;;;;;23.71;58.66;100632.03;10170726;28;98951;-74
2023/10/14 19:18:45;;;;;;;17.10;9.07;;;;;;;23.30;60.02;100635.59;10169536;28;96797;-73
2023/10/14 19:23:48;;;;;;;15.52;7.97;;;;;;;23.20;60.61;100641.91;10175615;28;96948;-74
2023/10/14 19:28:52;;;;;;;9.98;6.18;;;;;;;22.90;61.01;100640.00;10174848;28;96827;-73
2023/10/14 19:33:57;;;;;;;10.00;6.63;;;;;;;22.90;61.33;100647.19;10173263;28;98926;-74
2023/10/14 19:39:00;;;;;;;9.90;6.50;;;;;;;22.73;62.06;100653.94;10172394;28;97172;-74
2023/10/14 19:44:05;;;;;;;9.60;6.40;;;;;;;22.56;62.69;100655.31;10162166;28;99338;-74
2023/10/14 19:49:10;;;;;;;13.90;7.35;;;;;;;22.77;62.08;100647.31;10168103;28;98212;-74
2023/10/14 19:54:14;;;;;;;15.88;8.15;;;;;;;22.67;62.55;100651.75;10173436;28;97120;-75
2023/10/14 19:59:18;;;;;;;12.65;7.95;;;;;;;22.63;62.47;100661.03;10172682;28;96829;-74
2023/10/14 20:04:24;;;;;;;15.27;7.77;;;;;;;22.63;62.89;100656.53;10186467;28;96912;-74
2023/10/14 20:09:32;;;;;;;33.80;17.75;;;;;;;22.72;62.46;100656.72;10172756;28;96882;-74
2023/10/14 20:14:35;;;;;;;52.15;27.02;;;;;;;22.64;62.54;100654.69;10173251;28;96842;-74
2023/10/14 20:19:39;;;;;;;60.42;31.67;;;;;;;22.43;63.51;100654.66;10176802;28;99289;-73
2023/10/14 20:24:48;;;;;;;61.88;32.60;;;;;;;22.39;63.65;100655.88;10180713;28;96808;-74
2023/10/14 20:29:51;;;;;;;55.20;30.73;;;;;;;22.37;63.63;100663.19;10174592;28;98455;-74
2023/10/14 20:34:56;;;;;;;33.97;18.50;;;;;;;22.08;64.76;100671.88;10177042;28;99013;-75
2023/10/14 20:39:59;;;;;;;26.83;16.30;;;;;;;22.15;64.51;100662.38;10183828;28;96863;-74
2023/10/14 20:45:04;;;;;;;19.50;11.18;;;;;;;21.93;65.03;100657.88;10178516;28;96802;-74
2023/10/14 20:50:10;;;;;;;13.75;8.43;;;;;;;21.79;65.68;100665.28;10176864;28;97303;-74
2023/10/14 20:55:13;;;;;;;15.20;7.82;;;;;;;22.01;65.01;100665.31;10179435;28;97171;-74
2023/10/14 21:00:17;;;;;;;12.02;7.93;;;;;;;21.97;65.08;100661.16;10179442;28;96827;-74
2023/10/14 21:05:22;;;;;;;14.40;8.40;;;;;;;21.95;64.88;100666.59;10178546;28;96962;-74
2023/10/14 21:10:30;;;;;;;13.05;8.45;;;;;;;21.84;65.29;100663.94;10178223;28;96876;-74
2023/10/14 21:15:33;;;;;;;19.00;11.55;;;;;;;21.80;65.67;100667.84;10173114;28;98327;-74
2023/10/14 21:20:42;;;;;;;22.73;12.50;;;;;;;21.65;65.83;100682.44;10176637;28;96937;-76
2023/10/14 21:25:46;;;;;;;17.05;11.82;;;;;;;21.52;66.20;100683.53;10158432;28;96898;-76
2023/10/14 21:30:50;;;;;;;14.95;8.45;;;;;;;21.51;66.19;100685.34;10203834;28;96711;-76
2023/10/14 21:35:56;;;;;;;11.70;6.88;;;;;;;21.71;65.59;100689.16;10175721;28;98785;-76
2023/10/14 21:41:00;;;;;;;13.57;7.90;;;;;;;21.77;65.48;100688.66;10190745;28;96785;-76
2023/10/14 21:46:09;;;;;;;15.38;8.55;;;;;;;21.80;65.67;100675.88;10153627;28;96900;-76
2023/10/14 21:51:14;;;;;;;14.05;8.45;;;;;;;21.76;65.64;100685.13;10157984;28;97406;-76
2023/10/14 21:56:18;;;;;;;13.73;8.32;;;;;;;21.66;65.82;100686.81;10167079;28;96783;-76
2023/10/14 22:01:24;;;;;;;11.00;7.03;;;;;;;21.57;65.79;100689.38;10174619;28;96802;-76
2023/10/14 22:06:29;;;;;;;10.98;6.07;;;;;;;21.52;66.30;100686.22;10169411;28;97736;-76
2023/10/14 22:11:35;;;;;;;9.07;5.90;;;;;;;21.50;66.22;100684.50;10175079;28;97089;-76
2023/10/14 22:16:39;;;;;;;9.50;5.75;;;;;;;21.50;66.12;100689.84;10177302;28;96931;-76
2023/10/14 22:21:44;;;;;;;10.27;6.00;;;;;;;21.36;66.44;100684.69;10176203;28;96900;-76
2023/10/14 22:26:47;;;;;;;10.60;6.38;;;;;;;21.22;67.19;100679.59;10178183;28;97181;-77
2023/10/14 22:31:51;;;;;;;10.10;6.03;;;;;;;21.20;66.79;100681.50;10174481;28;97211;-77
2023/10/14 22:36:56;;;;;;;10.35;5.70;;;;;;;21.10;66.84;100676.94;10176268;28;97659;-76
2023/10/14 22:41:59;;;;;;;7.88;5.18;;;;;;;20.99;67.21;100676.91;10174019;28;96896;-77
2023/10/14 22:47:03;;;;;;;9.63;5.50;;;;;;;21.09;67.02;100667.19;10177176;28;96943;-76
2023/10/14 22:52:07;;;;;;;9.13;6.20;;;;;;;21.11;66.76;100666.13;10174027;28;98618;-77
2023/10/14 22:57:11;;;;;;;9.48;5.50;;;;;;;20.83;67.83;100658.47;10175984;28;96815;-76
2023/10/14 23:02:15;;;;;;;10.15;5.60;;;;;;;20.73;68.34;100657.47;10175956;28;96919;-77
2023/10/14 23:07:20;;;;;;;10.63;5.37;;;;;;;20.71;67.80;100654.03;10185060;28;98680;-77
2023/10/14 23:12:23;;;;;;;10.35;5.78;;;;;;;20.54;68.30;100661.63;10176628;28;96761;-76
2023/10/14 23:17:28;;;;;;;11.50;5.78;;;;;;;20.52;68.78;100651.03;10173231;28;97227;-77
2023/10/14 23:22:34;;;;;;;8.40;5.13;;;;;;;20.51;68.88;100653.81;10172172;28;96854;-77
2023/10/14 23:27:37;;;;;;;9.82;4.60;;;;;;;20.56;68.52;100649.00;10165915;28;98811;-77
2023/10/14 23:32:42;;;;;;;9.60;5.10;;;;;;;20.49;68.69;100645.06;10151971;28;97321;-77
2023/10/14 23:37:48;;;;;;;9.70;5.28;;;;;;;20.46;68.57;100642.63;10174103;28;99203;-76